createdAt,value
2022-12-29T00:01:02.904Z,93408.75
2022-12-29T00:04:10.045Z,93418.09
2022-12-29T00:07:17.388Z,93417.22
2022-12-29T00:10:21.147Z,93422.66
2022-12-29T00:13:42.650Z,93426.75
2022-12-29T00:16:47.441Z,93420.84
2022-12-29T00:20:08.900Z,93417.22
2022-12-29T00:23:30.610Z,93416.78
2022-12-29T00:26:51.949Z,93419.25
2022-12-29T00:30:13.210Z,93414.25
2022-12-29T00:33:37.359Z,93411.97
2022-12-29T00:36:44.166Z,93406.50
2022-12-29T00:40:05.754Z,93424.03
2022-12-29T00:43:27.139Z,93417.88
2022-12-29T00:46:30.265Z,93412.19
2022-12-29T00:49:34.502Z,93411.50
2022-12-29T00:52:37.774Z,93414.19
2022-12-29T00:55:40.989Z,93421.47
2022-12-29T00:58:43.994Z,93416.22
2022-12-29T01:01:48.771Z,93408.91
2022-12-29T01:04:52.025Z,93405.25
2022-12-29T01:07:55.102Z,93403.28
2022-12-29T01:11:12.420Z,93397.19
2022-12-29T01:14:15.700Z,93396.50
2022-12-29T01:17:18.822Z,93398.56
2022-12-29T01:20:21.986Z,93398.56
2022-12-29T01:23:25.075Z,93406.91
2022-12-29T01:26:28.686Z,93408.47
2022-12-29T01:29:32.102Z,93409.06
2022-12-29T01:32:35.243Z,93412.91
2022-12-29T01:35:38.739Z,93408.69
2022-12-29T01:38:42.982Z,93398.75
2022-12-29T01:41:46.081Z,93400.59
2022-12-29T01:44:53.871Z,93400.59
2022-12-29T01:47:59.471Z,93406.22
2022-12-29T01:51:02.767Z,93401.63
2022-12-29T01:54:11.384Z,93399.53
2022-12-29T01:57:23.338Z,93402.22
2022-12-29T02:00:26.383Z,93403.31
2022-12-29T02:03:34.120Z,93396.91
2022-12-29T02:06:45.504Z,93389.50
2022-12-29T02:09:53.661Z,93396.16
2022-12-29T02:12:56.758Z,93393.38
2022-12-29T02:16:21.795Z,93388.16
2022-12-29T02:19:52.555Z,93395.44
2022-12-29T02:23:10.641Z,93387.03
2022-12-29T02:26:35.229Z,93374.06
2022-12-29T02:30:03.738Z,93377.09
2022-12-29T02:33:32.073Z,93387.03
2022-12-29T02:36:41.888Z,93388.44
2022-12-29T02:40:03.700Z,93379.41
2022-12-29T02:43:34.061Z,93379.53
2022-12-29T02:46:49.809Z,93381.00
2022-12-29T02:50:22.224Z,93382.09
2022-12-29T02:53:45.074Z,93367.84
2022-12-29T02:56:48.221Z,93364.94
2022-12-29T02:59:56.382Z,93370.81
2022-12-29T03:03:32.242Z,93363.19
2022-12-29T03:06:56.202Z,93360.63
2022-12-29T03:10:17.555Z,93354.69
2022-12-29T03:13:51.784Z,93353.88
2022-12-29T03:17:14.453Z,93343.03
2022-12-29T03:20:24.894Z,93342.34
2022-12-29T03:23:31.885Z,93325.59
2022-12-29T03:26:35.420Z,93327.25
2022-12-29T03:29:43.658Z,93326.44
2022-12-29T03:32:56.374Z,93316.72
2022-12-29T03:36:06.981Z,93313.75
2022-12-29T03:39:15.482Z,93305.84
2022-12-29T03:42:23.299Z,93300.41
2022-12-29T03:45:27.127Z,93287.13
2022-12-29T03:48:30.821Z,93290.00
2022-12-29T03:51:33.897Z,93287.13
2022-12-29T03:54:38.608Z,93281.56
2022-12-29T03:57:42.444Z,93274.53
2022-12-29T04:00:50.000Z,93264.78
2022-12-29T04:03:54.299Z,93257.97
2022-12-29T04:06:57.424Z,93260.25
2022-12-29T04:10:00.905Z,93256.91
2022-12-29T04:13:04.890Z,93260.34
2022-12-29T04:16:08.540Z,93262.38
2022-12-29T04:19:12.939Z,93256.34
2022-12-29T04:22:16.014Z,93258.28
2022-12-29T04:25:22.274Z,93253.50
2022-12-29T04:28:26.204Z,93249.13
2022-12-29T04:31:39.482Z,93254.22
2022-12-29T04:34:44.089Z,93239.09
2022-12-29T04:37:47.220Z,93234.09
2022-12-29T04:40:52.057Z,93229.03
2022-12-29T04:43:58.435Z,93225.84
2022-12-29T04:47:01.506Z,93220.31
2022-12-29T04:50:30.965Z,93222.38
2022-12-29T04:53:48.141Z,93223.72
2022-12-29T04:56:51.236Z,93214.44
2022-12-29T04:59:55.074Z,93199.25
2022-12-29T05:02:59.404Z,93205.31
2022-12-29T05:06:02.835Z,93193.03
2022-12-29T05:09:05.956Z,93186.09
2022-12-29T05:12:10.376Z,93183.53
2022-12-29T05:15:21.049Z,93175.22
2022-12-29T05:18:24.332Z,93174.66
2022-12-29T05:21:27.495Z,93160.78
2022-12-29T05:24:31.796Z,93166.88
2022-12-29T05:27:35.032Z,93151.31
2022-12-29T05:30:53.475Z,93152.97
2022-12-29T05:33:56.546Z,93155.91
2022-12-29T05:36:59.823Z,93150.53
2022-12-29T05:40:02.960Z,93141.97
2022-12-29T05:43:06.333Z,93136.13
2022-12-29T05:46:41.129Z,93127.19
2022-12-29T05:49:53.279Z,93126.25
2022-12-29T05:53:05.625Z,93133.19
2022-12-29T05:56:09.063Z,93129.66
2022-12-29T05:59:12.254Z,93128.50
2022-12-29T06:02:15.962Z,93124.78
2022-12-29T06:05:19.496Z,93118.41
2022-12-29T06:08:22.615Z,93119.75
2022-12-29T06:11:26.066Z,93115.44
2022-12-29T06:14:32.664Z,93116.25
2022-12-29T06:17:36.852Z,93105.16
2022-12-29T06:20:41.457Z,93100.78
2022-12-29T06:23:45.116Z,93101.53
2022-12-29T06:26:48.151Z,93099.78
2022-12-29T06:29:51.571Z,93091.13
2022-12-29T06:32:55.837Z,93094.22
2022-12-29T06:36:00.556Z,93092.09
2022-12-29T06:39:06.437Z,93085.81
2022-12-29T06:42:11.165Z,93078.59
2022-12-29T06:45:33.016Z,93078.38
2022-12-29T06:48:36.204Z,93084.34
2022-12-29T06:51:39.288Z,93074.94
2022-12-29T06:54:42.405Z,93078.81
2022-12-29T06:57:45.469Z,93076.28
2022-12-29T07:00:49.244Z,93074.41
2022-12-29T07:03:52.464Z,93059.06
2022-12-29T07:06:55.857Z,93060.50
2022-12-29T07:09:58.944Z,93062.56
2022-12-29T07:13:02.059Z,93053.22
2022-12-29T07:16:09.544Z,93059.63
2022-12-29T07:19:12.689Z,93061.03
2022-12-29T07:22:15.806Z,93058.25
2022-12-29T07:25:18.959Z,93055.25
2022-12-29T07:28:22.176Z,93053.88
2022-12-29T07:31:25.315Z,93053.34
2022-12-29T07:34:28.482Z,93060.59
2022-12-29T07:37:32.134Z,93058.13
2022-12-29T07:40:35.264Z,93057.22
2022-12-29T07:43:38.371Z,93049.91
2022-12-29T07:47:11.597Z,93055.03
2022-12-29T07:50:14.871Z,93054.72
2022-12-29T07:53:18.298Z,93048.69
2022-12-29T07:56:21.415Z,93050.19
2022-12-29T07:59:24.628Z,93037.88
2022-12-29T08:02:31.449Z,93039.63
2022-12-29T08:05:36.013Z,93033.28
2022-12-29T08:08:39.725Z,93020.84
2022-12-29T08:11:44.485Z,93026.53
2022-12-29T08:14:47.662Z,93021.50
2022-12-29T08:17:50.698Z,93011.59
2022-12-29T08:20:55.809Z,93020.19
2022-12-29T08:24:00.586Z,93016.44
2022-12-29T08:27:12.058Z,93021.34
2022-12-29T08:30:21.024Z,93018.31
2022-12-29T08:33:24.157Z,93014.44
2022-12-29T08:36:27.369Z,93010.59
2022-12-29T08:39:31.299Z,93010.06
2022-12-29T08:42:35.318Z,93009.22
2022-12-29T08:45:38.460Z,93006.19
2022-12-29T08:48:41.540Z,93009.06
2022-12-29T08:51:44.768Z,93007.56
2022-12-29T08:54:47.893Z,93007.03
2022-12-29T08:57:51.251Z,93011.41
2022-12-29T09:00:57.756Z,93011.06
2022-12-29T09:04:17.664Z,93015.13
2022-12-29T09:07:21.287Z,93010.75
2022-12-29T09:10:24.628Z,93005.31
2022-12-29T09:13:27.740Z,93001.78
2022-12-29T09:16:31.312Z,92997.91
2022-12-29T09:19:34.540Z,93000.94
2022-12-29T09:22:38.534Z,92998.22
2022-12-29T09:25:41.680Z,93002.13
2022-12-29T09:28:45.927Z,93004.50
2022-12-29T09:31:49.197Z,93000.97
2022-12-29T09:34:52.271Z,93002.81
2022-12-29T09:37:56.203Z,92987.44
2022-12-29T09:41:10.854Z,92991.09
2022-12-29T09:44:19.637Z,92987.28
2022-12-29T09:47:25.508Z,92987.25
2022-12-29T09:50:40.472Z,92977.47
2022-12-29T09:53:47.206Z,92972.22
2022-12-29T09:56:53.934Z,92973.50
2022-12-29T10:00:08.662Z,92971.13
2022-12-29T10:03:20.688Z,92975.25
2022-12-29T10:07:11.372Z,92973.31
2022-12-29T10:10:15.967Z,92976.19
2022-12-29T10:13:45.101Z,92976.53
2022-12-29T10:17:03.202Z,92965.22
2022-12-29T10:20:15.421Z,92961.81
2022-12-29T10:23:37.729Z,92957.91
2022-12-29T10:26:45.817Z,92950.84
2022-12-29T10:29:57.319Z,92950.72
2022-12-29T10:33:08.101Z,92946.69
2022-12-29T10:36:18.913Z,92945.88
2022-12-29T10:39:36.908Z,92950.78
2022-12-29T10:42:45.165Z,92952.63
2022-12-29T10:45:49.668Z,92949.88
2022-12-29T10:48:52.914Z,92950.56
2022-12-29T10:52:00.508Z,92957.59
2022-12-29T10:55:10.479Z,92948.03
2022-12-29T10:58:16.664Z,92948.75
2022-12-29T11:01:20.531Z,92946.59
2022-12-29T11:05:03.723Z,92933.81
2022-12-29T11:08:14.055Z,92936.13
2022-12-29T11:11:27.691Z,92931.09
2022-12-29T11:14:33.150Z,92934.28
2022-12-29T11:18:05.545Z,92923.53
2022-12-29T11:21:29.858Z,92927.44
2022-12-29T11:24:33.490Z,92920.97
2022-12-29T11:27:36.872Z,92915.59
2022-12-29T11:30:40.175Z,92917.66
2022-12-29T11:33:43.263Z,92919.97
2022-12-29T11:36:46.604Z,92925.72
2022-12-29T11:39:54.508Z,92922.53
2022-12-29T11:43:05.684Z,92924.91
2022-12-29T11:46:10.151Z,92923.19
2022-12-29T11:49:20.478Z,92920.84
2022-12-29T11:52:30.423Z,92916.97
2022-12-29T11:55:34.455Z,92911.13
2022-12-29T11:58:39.778Z,92913.22
2022-12-29T12:01:44.886Z,92901.28
2022-12-29T12:04:51.524Z,92914.09
2022-12-29T12:08:17.447Z,92907.56
2022-12-29T12:11:39.732Z,92901.69
2022-12-29T12:15:01.277Z,92909.41
2022-12-29T12:18:33.974Z,92910.91
2022-12-29T12:21:45.417Z,92909.06
2022-12-29T12:25:16.864Z,92909.06
2022-12-29T12:28:36.309Z,92900.31
2022-12-29T12:31:56.106Z,92905.13
2022-12-29T12:34:59.268Z,92898.72
2022-12-29T12:38:26.038Z,92889.09
2022-12-29T12:41:50.640Z,92888.63
2022-12-29T12:45:18.277Z,92885.94
2022-12-29T12:48:58.009Z,92878.16
2022-12-29T12:52:21.511Z,92885.28
2022-12-29T12:55:43.402Z,92879.03
2022-12-29T12:59:12.753Z,92863.06
2022-12-29T13:02:36.206Z,92861.50
2022-12-29T13:05:45.360Z,92873.38
2022-12-29T13:08:54.296Z,92868.50
2022-12-29T13:12:34.945Z,92867.53
2022-12-29T13:16:03.425Z,92866.78
2022-12-29T13:19:38.615Z,92863.97
2022-12-29T13:23:08.257Z,92862.72
2022-12-29T13:26:19.696Z,92858.25
2022-12-29T13:29:36.255Z,92860.66
2022-12-29T13:32:57.398Z,92862.16
2022-12-29T13:36:15.509Z,92846.34
2022-12-29T13:39:39.125Z,92838.94
2022-12-29T13:42:43.712Z,92835.22
2022-12-29T13:45:52.551Z,92825.72
2022-12-29T13:49:03.576Z,92830.81
2022-12-29T13:52:34.944Z,92827.16
2022-12-29T13:55:56.149Z,92826.72
2022-12-29T13:59:16.447Z,92815.78
2022-12-29T14:02:35.821Z,92813.16
2022-12-29T14:05:39.214Z,92813.19
2022-12-29T14:08:43.142Z,92806.31
2022-12-29T14:11:46.549Z,92823.47
2022-12-29T14:14:49.737Z,92808.41
2022-12-29T14:18:13.563Z,92817.09
2022-12-29T14:21:29.527Z,92805.06
2022-12-29T14:24:39.362Z,92803.38
2022-12-29T14:27:53.148Z,92803.56
2022-12-29T14:31:01.519Z,92806.22
2022-12-29T14:34:07.868Z,92809.59
2022-12-29T14:37:27.765Z,92818.19
2022-12-29T14:40:31.496Z,92819.53
2022-12-29T14:43:35.200Z,92818.84
2022-12-29T14:47:00.221Z,92824.22
2022-12-29T14:50:12.483Z,92822.84
2022-12-29T14:53:43.769Z,92822.81
2022-12-29T14:56:47.501Z,92816.84
2022-12-29T14:59:56.174Z,92816.47
2022-12-29T15:03:14.849Z,92816.31
2022-12-29T15:06:23.802Z,92817.13
2022-12-29T15:09:39.906Z,92807.28
2022-12-29T15:12:54.174Z,92811.44
2022-12-29T15:15:57.391Z,92803.75
2022-12-29T15:19:01.721Z,92799.13
2022-12-29T15:22:05.762Z,92807.09
2022-12-29T15:25:17.026Z,92800.38
2022-12-29T15:28:23.458Z,92819.50
2022-12-29T15:31:30.487Z,92819.00
2022-12-29T15:34:34.189Z,92820.03
2022-12-29T15:37:37.702Z,92817.72
2022-12-29T15:40:40.906Z,92819.41
2022-12-29T15:44:04.308Z,92825.50
2022-12-29T15:47:31.107Z,92816.31
2022-12-29T15:50:37.454Z,92815.94
2022-12-29T15:53:40.730Z,92819.75
2022-12-29T15:56:44.436Z,92811.81
2022-12-29T15:59:49.799Z,92798.56
2022-12-29T16:02:55.476Z,92803.78
2022-12-29T16:06:12.704Z,92787.06
2022-12-29T16:09:21.589Z,92796.38
2022-12-29T16:12:33.390Z,92790.50
2022-12-29T16:15:37.083Z,92789.25
2022-12-29T16:18:40.921Z,92780.13
2022-12-29T16:21:44.847Z,92773.91
2022-12-29T16:24:48.596Z,92774.13
2022-12-29T16:27:52.600Z,92777.06
2022-12-29T16:31:08.551Z,92773.47
2022-12-29T16:34:44.410Z,92772.78
2022-12-29T16:37:48.289Z,92769.38
2022-12-29T16:41:05.231Z,92778.69
2022-12-29T16:44:28.099Z,92785.84
2022-12-29T16:47:31.476Z,92781.72
2022-12-29T16:50:39.683Z,92790.50
2022-12-29T16:53:48.945Z,92787.59
2022-12-29T16:56:54.054Z,92792.09
2022-12-29T17:00:03.195Z,92793.41
2022-12-29T17:03:06.450Z,92792.25
2022-12-29T17:06:17.212Z,92790.63
2022-12-29T17:09:25.257Z,92790.97
2022-12-29T17:12:32.035Z,92792.63
2022-12-29T17:15:36.286Z,92794.78
2022-12-29T17:18:39.884Z,92785.34
2022-12-29T17:21:43.034Z,92790.50
2022-12-29T17:24:46.366Z,92787.75
2022-12-29T17:27:58.067Z,92793.56
2022-12-29T17:31:07.731Z,92783.66
2022-12-29T17:34:13.911Z,92792.84
2022-12-29T17:37:20.371Z,92798.78
2022-12-29T17:40:27.804Z,92795.88
2022-12-29T17:43:36.813Z,92780.13
2022-12-29T17:46:40.480Z,92778.66
2022-12-29T17:49:47.363Z,92783.94
2022-12-29T17:53:02.663Z,92773.81
2022-12-29T17:56:05.919Z,92786.69
2022-12-29T17:59:16.600Z,92767.13
2022-12-29T18:02:26.049Z,92777.63
2022-12-29T18:05:31.638Z,92781.22
2022-12-29T18:08:37.125Z,92785.16
2022-12-29T18:11:42.829Z,92789.88
2022-12-29T18:14:45.886Z,92776.03
2022-12-29T18:17:49.901Z,92776.66
2022-12-29T18:20:55.525Z,92783.00
2022-12-29T18:23:58.610Z,92778.28
2022-12-29T18:27:02.969Z,92785.00
2022-12-29T18:30:08.439Z,92787.09
2022-12-29T18:33:22.582Z,92791.34
2022-12-29T18:36:28.204Z,92790.69
2022-12-29T18:39:31.629Z,92786.06
2022-12-29T18:42:34.740Z,92790.47
2022-12-29T18:45:37.866Z,92783.81
2022-12-29T18:48:41.987Z,92786.94
2022-12-29T18:51:45.119Z,92795.31
2022-12-29T18:54:48.202Z,92792.88
2022-12-29T18:57:52.324Z,92790.88
2022-12-29T19:00:55.601Z,92803.50
2022-12-29T19:03:58.759Z,92794.59
2022-12-29T19:07:01.890Z,92797.66
2022-12-29T19:10:05.327Z,92795.53
2022-12-29T19:13:08.519Z,92791.72
2022-12-29T19:16:23.485Z,92795.03
2022-12-29T19:19:26.635Z,92788.44
2022-12-29T19:22:30.295Z,92792.44
2022-12-29T19:25:33.639Z,92787.28
2022-12-29T19:28:36.677Z,92774.53
2022-12-29T19:31:40.319Z,92770.22
2022-12-29T19:34:43.454Z,92773.63
2022-12-29T19:37:46.518Z,92767.72
2022-12-29T19:40:51.825Z,92764.75
2022-12-29T19:43:55.056Z,92758.16
2022-12-29T19:46:58.252Z,92753.94
2022-12-29T19:50:02.501Z,92756.78
2022-12-29T19:53:05.913Z,92757.28
2022-12-29T19:56:10.634Z,92746.53
2022-12-29T19:59:13.902Z,92744.56
2022-12-29T20:02:25.773Z,92744.94
2022-12-29T20:05:28.947Z,92743.09
2022-12-29T20:08:32.059Z,92733.19
2022-12-29T20:11:36.709Z,92735.22
2022-12-29T20:14:44.274Z,92729.03
2022-12-29T20:18:13.273Z,92725.03
2022-12-29T20:21:15.382Z,92729.91
2022-12-29T20:24:18.497Z,92717.81
2022-12-29T20:27:21.579Z,92727.03
2022-12-29T20:30:25.747Z,92719.97
2022-12-29T20:33:31.086Z,92713.97
2022-12-29T20:36:35.729Z,92713.97
2022-12-29T20:39:40.272Z,92713.09
2022-12-29T20:42:43.370Z,92700.84
2022-12-29T20:45:46.590Z,92705.41
2022-12-29T20:48:50.535Z,92700.31
2022-12-29T20:52:08.839Z,92696.94
2022-12-29T20:55:11.920Z,92701.16
2022-12-29T20:58:23.566Z,92698.81
2022-12-29T21:01:27.795Z,92697.84
2022-12-29T21:04:50.261Z,92698.31
2022-12-29T21:07:55.415Z,92697.34
2022-12-29T21:10:59.323Z,92695.19
2022-12-29T21:14:02.640Z,92689.97
2022-12-29T21:17:05.815Z,92680.75
2022-12-29T21:20:22.037Z,92677.25
2022-12-29T21:23:25.965Z,92681.97
2022-12-29T21:26:29.077Z,92680.31
2022-12-29T21:29:32.294Z,92687.41
2022-12-29T21:32:36.034Z,92685.94
2022-12-29T21:35:39.703Z,92688.47
2022-12-29T21:38:43.186Z,92695.72
2022-12-29T21:41:46.303Z,92684.69
2022-12-29T21:45:07.732Z,92692.88
2022-12-29T21:48:24.555Z,92697.59
2022-12-29T21:51:50.545Z,92700.59
2022-12-29T21:55:02.883Z,92696.75
2022-12-29T21:58:24.331Z,92700.28
2022-12-29T22:01:47.018Z,92708.19
2022-12-29T22:05:08.615Z,92716.09
2022-12-29T22:08:29.937Z,92735.41
2022-12-29T22:11:51.501Z,92725.50
2022-12-29T22:14:54.618Z,92735.59
2022-12-29T22:17:58.152Z,92725.16
2022-12-29T22:21:08.625Z,92725.50
2022-12-29T22:24:11.708Z,92727.00
2022-12-29T22:27:14.795Z,92728.69
2022-12-29T22:30:19.016Z,92731.88
2022-12-29T22:33:21.818Z,92730.84
2022-12-29T22:36:26.248Z,92724.47
2022-12-29T22:39:29.288Z,92731.00
2022-12-29T22:42:32.436Z,92733.88
2022-12-29T22:45:35.540Z,92739.25
2022-12-29T22:48:39.067Z,92738.94
2022-12-29T22:51:42.153Z,92745.66
2022-12-29T22:54:45.235Z,92747.66
2022-12-29T22:57:48.641Z,92740.94
2022-12-29T23:00:51.782Z,92746.94
2022-12-29T23:04:11.190Z,92757.78
2022-12-29T23:07:17.909Z,92750.66
2022-12-29T23:10:21.545Z,92748.72
2022-12-29T23:13:24.732Z,92752.50
2022-12-29T23:16:28.127Z,92759.31
2022-12-29T23:19:31.258Z,92751.91
2022-12-29T23:22:34.527Z,92756.78
2022-12-29T23:25:39.089Z,92747.66
2022-12-29T23:28:43.111Z,92751.63
2022-12-29T23:31:47.553Z,92754.63
2022-12-29T23:34:50.644Z,92753.78
2022-12-29T23:37:53.809Z,92753.19
2022-12-29T23:40:56.915Z,92755.00
2022-12-29T23:44:00.004Z,92751.19
2022-12-29T23:47:03.388Z,92748.84
2022-12-29T23:50:07.141Z,92751.72
2022-12-29T23:53:10.913Z,92741.38
2022-12-29T23:56:17.686Z,92751.28
2022-12-29T23:59:20.876Z,92751.56
